sensor_id;sensor_type;location;lat;lon;timestamp;P1;durP1;ratioP1;P2;durP2;ratioP2
23722;SDS011;12042;52.136;5.584;2023-04-23T00:00:28;158.55;;;71.68;;
23722;SDS011;12042;52.136;5.584;2023-04-23T00:02:54;153.65;;;71.15;;
23722;SDS011;12042;52.136;5.584;2023-04-23T00:05:22;148.82;;;69.93;;
23722;SDS011;12042;52.136;5.584;2023-04-23T00:07:51;152.93;;;71.93;;
23722;SDS011;12042;52.136;5.584;2023-04-23T00:10:18;153.93;;;70.75;;
23722;SDS011;12042;52.136;5.584;2023-04-23T00:12:44;163.05;;;74.95;;
23722;SDS011;12042;52.136;5.584;2023-04-23T00:15:10;167.15;;;74.35;;
23722;SDS011;12042;52.136;5.584;2023-04-23T00:17:37;168.27;;;75.45;;
23722;SDS011;12042;52.136;5.584;2023-04-23T00:20:03;172.73;;;75.47;;
23722;SDS011;12042;52.136;5.584;2023-04-23T00:22:30;170.63;;;75.38;;
23722;SDS011;12042;52.136;5.584;2023-04-23T00:24:56;184.82;;;79.70;;
23722;SDS011;12042;52.136;5.584;2023-04-23T00:27:21;169.93;;;75.82;;
23722;SDS011;12042;52.136;5.584;2023-04-23T00:29:47;183.45;;;77.93;;
23722;SDS011;12042;52.136;5.584;2023-04-23T00:32:13;179.30;;;76.15;;
23722;SDS011;12042;52.136;5.584;2023-04-23T00:34:39;190.50;;;78.90;;
23722;SDS011;12042;52.136;5.584;2023-04-23T00:37:05;187.88;;;80.43;;
23722;SDS011;12042;52.136;5.584;2023-04-23T00:39:31;189.93;;;80.32;;
23722;SDS011;12042;52.136;5.584;2023-04-23T00:41:57;194.85;;;81.28;;
23722;SDS011;12042;52.136;5.584;2023-04-23T00:44:26;188.75;;;79.68;;
23722;SDS011;12042;52.136;5.584;2023-04-23T00:46:51;209.07;;;83.85;;
23722;SDS011;12042;52.136;5.584;2023-04-23T00:49:18;197.60;;;82.10;;
23722;SDS011;12042;52.136;5.584;2023-04-23T00:51:46;213.25;;;86.55;;
23722;SDS011;12042;52.136;5.584;2023-04-23T00:54:11;210.65;;;83.78;;
23722;SDS011;12042;52.136;5.584;2023-04-23T00:56:38;212.77;;;82.93;;
23722;SDS011;12042;52.136;5.584;2023-04-23T00:59:03;208.75;;;84.15;;
23722;SDS011;12042;52.136;5.584;2023-04-23T01:01:29;212.13;;;82.75;;
23722;SDS011;12042;52.136;5.584;2023-04-23T01:03:55;217.52;;;86.25;;
23722;SDS011;12042;52.136;5.584;2023-04-23T01:06:20;218.07;;;84.50;;
23722;SDS011;12042;52.136;5.584;2023-04-23T01:08:49;217.38;;;86.00;;
23722;SDS011;12042;52.136;5.584;2023-04-23T01:11:14;215.75;;;85.15;;
23722;SDS011;12042;52.136;5.584;2023-04-23T01:13:41;202.35;;;83.10;;
23722;SDS011;12042;52.136;5.584;2023-04-23T01:16:08;204.85;;;82.18;;
23722;SDS011;12042;52.136;5.584;2023-04-23T01:18:34;204.93;;;83.07;;
23722;SDS011;12042;52.136;5.584;2023-04-23T01:21:00;211.95;;;84.13;;
23722;SDS011;12042;52.136;5.584;2023-04-23T01:23:26;185.30;;;77.82;;
23722;SDS011;12042;52.136;5.584;2023-04-23T01:25:52;208.57;;;83.45;;
23722;SDS011;12042;52.136;5.584;2023-04-23T01:28:19;197.70;;;80.03;;
23722;SDS011;12042;52.136;5.584;2023-04-23T01:30:45;179.98;;;76.35;;
23722;SDS011;12042;52.136;5.584;2023-04-23T01:33:12;177.40;;;77.95;;
23722;SDS011;12042;52.136;5.584;2023-04-23T01:35:39;168.07;;;73.05;;
23722;SDS011;12042;52.136;5.584;2023-04-23T01:38:06;174.43;;;75.78;;
23722;SDS011;12042;52.136;5.584;2023-04-23T01:40:34;168.98;;;73.72;;
23722;SDS011;12042;52.136;5.584;2023-04-23T01:43:00;162.25;;;72.72;;
23722;SDS011;12042;52.136;5.584;2023-04-23T01:45:25;155.63;;;69.82;;
23722;SDS011;12042;52.136;5.584;2023-04-23T01:47:51;165.40;;;73.18;;
23722;SDS011;12042;52.136;5.584;2023-04-23T01:50:17;154.15;;;69.50;;
23722;SDS011;12042;52.136;5.584;2023-04-23T01:52:43;160.05;;;71.68;;
23722;SDS011;12042;52.136;5.584;2023-04-23T01:55:09;144.68;;;68.55;;
23722;SDS011;12042;52.136;5.584;2023-04-23T01:57:35;145.50;;;69.43;;
23722;SDS011;12042;52.136;5.584;2023-04-23T02:00:05;139.90;;;65.10;;
23722;SDS011;12042;52.136;5.584;2023-04-23T02:02:33;148.10;;;68.28;;
23722;SDS011;12042;52.136;5.584;2023-04-23T02:04:59;140.27;;;66.90;;
23722;SDS011;12042;52.136;5.584;2023-04-23T02:07:33;148.57;;;69.03;;
23722;SDS011;12042;52.136;5.584;2023-04-23T02:09:59;158.13;;;69.45;;
23722;SDS011;12042;52.136;5.584;2023-04-23T02:12:26;157.50;;;70.65;;
23722;SDS011;12042;52.136;5.584;2023-04-23T02:14:52;153.02;;;68.75;;
23722;SDS011;12042;52.136;5.584;2023-04-23T02:17:19;147.95;;;66.97;;
23722;SDS011;12042;52.136;5.584;2023-04-23T02:19:47;148.10;;;67.50;;
23722;SDS011;12042;52.136;5.584;2023-04-23T02:22:13;141.82;;;65.72;;
23722;SDS011;12042;52.136;5.584;2023-04-23T02:24:40;148.30;;;67.70;;
23722;SDS011;12042;52.136;5.584;2023-04-23T02:27:06;141.27;;;65.30;;
23722;SDS011;12042;52.136;5.584;2023-04-23T02:29:32;141.20;;;65.35;;
23722;SDS011;12042;52.136;5.584;2023-04-23T02:31:58;133.75;;;63.38;;
23722;SDS011;12042;52.136;5.584;2023-04-23T02:34:24;129.35;;;62.95;;
23722;SDS011;12042;52.136;5.584;2023-04-23T02:36:49;129.60;;;61.47;;
23722;SDS011;12042;52.136;5.584;2023-04-23T02:39:15;133.23;;;61.47;;
23722;SDS011;12042;52.136;5.584;2023-04-23T02:41:40;130.35;;;61.45;;
23722;SDS011;12042;52.136;5.584;2023-04-23T02:44:06;124.90;;;59.65;;
23722;SDS011;12042;52.136;5.584;2023-04-23T02:46:31;129.80;;;62.17;;
23722;SDS011;12042;52.136;5.584;2023-04-23T02:48:57;127.03;;;61.10;;
23722;SDS011;12042;52.136;5.584;2023-04-23T02:51:23;120.60;;;59.95;;
23722;SDS011;12042;52.136;5.584;2023-04-23T02:53:49;134.38;;;62.85;;
23722;SDS011;12042;52.136;5.584;2023-04-23T02:56:14;123.35;;;60.70;;
23722;SDS011;12042;52.136;5.584;2023-04-23T02:58:40;125.93;;;59.85;;
23722;SDS011;12042;52.136;5.584;2023-04-23T03:01:06;124.60;;;60.22;;
23722;SDS011;12042;52.136;5.584;2023-04-23T03:03:31;119.47;;;58.45;;
23722;SDS011;12042;52.136;5.584;2023-04-23T03:05:59;120.30;;;58.72;;
23722;SDS011;12042;52.136;5.584;2023-04-23T03:08:26;122.90;;;59.20;;
23722;SDS011;12042;52.136;5.584;2023-04-23T03:10:52;121.13;;;58.42;;
23722;SDS011;12042;52.136;5.584;2023-04-23T03:13:17;129.07;;;59.72;;
23722;SDS011;12042;52.136;5.584;2023-04-23T03:15:43;125.07;;;59.00;;
23722;SDS011;12042;52.136;5.584;2023-04-23T03:18:08;134.52;;;60.80;;
23722;SDS011;12042;52.136;5.584;2023-04-23T03:20:35;128.90;;;59.05;;
23722;SDS011;12042;52.136;5.584;2023-04-23T03:23:01;131.05;;;60.00;;
23722;SDS011;12042;52.136;5.584;2023-04-23T03:25:27;130.73;;;59.70;;
23722;SDS011;12042;52.136;5.584;2023-04-23T03:27:53;125.07;;;58.63;;
23722;SDS011;12042;52.136;5.584;2023-04-23T03:30:19;122.70;;;59.00;;
23722;SDS011;12042;52.136;5.584;2023-04-23T03:32:44;119.25;;;56.42;;
23722;SDS011;12042;52.136;5.584;2023-04-23T03:35:10;118.93;;;57.58;;
23722;SDS011;12042;52.136;5.584;2023-04-23T03:37:36;118.00;;;55.65;;
23722;SDS011;12042;52.136;5.584;2023-04-23T03:40:01;109.47;;;52.75;;
23722;SDS011;12042;52.136;5.584;2023-04-23T03:42:31;113.75;;;54.92;;
23722;SDS011;12042;52.136;5.584;2023-04-23T03:44:57;109.95;;;52.85;;
23722;SDS011;12042;52.136;5.584;2023-04-23T03:47:23;99.95;;;52.25;;
23722;SDS011;12042;52.136;5.584;2023-04-23T03:49:49;103.97;;;52.15;;
23722;SDS011;12042;52.136;5.584;2023-04-23T03:52:15;100.47;;;51.53;;
23722;SDS011;12042;52.136;5.584;2023-04-23T03:54:43;99.80;;;49.28;;
23722;SDS011;12042;52.136;5.584;2023-04-23T03:57:08;94.07;;;49.03;;
23722;SDS011;12042;52.136;5.584;2023-04-23T03:59:37;94.13;;;49.10;;
23722;SDS011;12042;52.136;5.584;2023-04-23T04:02:03;89.40;;;47.47;;
23722;SDS011;12042;52.136;5.584;2023-04-23T04:04:29;85.43;;;47.28;;
23722;SDS011;12042;52.136;5.584;2023-04-23T04:06:55;85.93;;;46.17;;
23722;SDS011;12042;52.136;5.584;2023-04-23T04:09:24;83.45;;;45.40;;
23722;SDS011;12042;52.136;5.584;2023-04-23T04:11:50;87.40;;;46.90;;
23722;SDS011;12042;52.136;5.584;2023-04-23T04:14:17;87.07;;;46.15;;
23722;SDS011;12042;52.136;5.584;2023-04-23T04:16:43;90.25;;;46.28;;
23722;SDS011;12042;52.136;5.584;2023-04-23T04:19:09;82.43;;;45.28;;
23722;SDS011;12042;52.136;5.584;2023-04-23T04:21:35;87.93;;;46.80;;
23722;SDS011;12042;52.136;5.584;2023-04-23T04:24:00;84.32;;;45.92;;
23722;SDS011;12042;52.136;5.584;2023-04-23T04:26:27;82.47;;;46.03;;
23722;SDS011;12042;52.136;5.584;2023-04-23T04:28:53;79.35;;;44.53;;
23722;SDS011;12042;52.136;5.584;2023-04-23T04:31:19;85.82;;;45.50;;
23722;SDS011;12042;52.136;5.584;2023-04-23T04:33:46;82.75;;;45.38;;
23722;SDS011;12042;52.136;5.584;2023-04-23T04:36:12;84.38;;;46.00;;
23722;SDS011;12042;52.136;5.584;2023-04-23T04:38:38;82.72;;;45.28;;
23722;SDS011;12042;52.136;5.584;2023-04-23T04:41:04;81.95;;;44.88;;
23722;SDS011;12042;52.136;5.584;2023-04-23T04:43:32;81.18;;;45.05;;
23722;SDS011;12042;52.136;5.584;2023-04-23T04:45:58;77.95;;;44.47;;
23722;SDS011;12042;52.136;5.584;2023-04-23T04:48:24;78.82;;;44.42;;
23722;SDS011;12042;52.136;5.584;2023-04-23T04:50:50;79.30;;;44.20;;
23722;SDS011;12042;52.136;5.584;2023-04-23T04:53:16;83.07;;;44.78;;
23722;SDS011;12042;52.136;5.584;2023-04-23T04:55:41;81.22;;;44.75;;
23722;SDS011;12042;52.136;5.584;2023-04-23T04:58:07;83.28;;;45.75;;
23722;SDS011;12042;52.136;5.584;2023-04-23T05:00:33;76.88;;;43.45;;
23722;SDS011;12042;52.136;5.584;2023-04-23T05:02:58;81.72;;;44.95;;
23722;SDS011;12042;52.136;5.584;2023-04-23T05:05:25;78.40;;;43.65;;
23722;SDS011;12042;52.136;5.584;2023-04-23T05:07:51;73.38;;;42.97;;
23722;SDS011;12042;52.136;5.584;2023-04-23T05:10:23;76.03;;;43.88;;
23722;SDS011;12042;52.136;5.584;2023-04-23T05:12:49;79.68;;;44.38;;
23722;SDS011;12042;52.136;5.584;2023-04-23T05:15:15;77.40;;;44.35;;
23722;SDS011;12042;52.136;5.584;2023-04-23T05:17:41;70.75;;;41.67;;
23722;SDS011;12042;52.136;5.584;2023-04-23T05:20:08;67.20;;;40.83;;
23722;SDS011;12042;52.136;5.584;2023-04-23T05:22:36;72.40;;;42.15;;
23722;SDS011;12042;52.136;5.584;2023-04-23T05:25:02;66.30;;;40.78;;
23722;SDS011;12042;52.136;5.584;2023-04-23T05:27:29;72.57;;;42.53;;
23722;SDS011;12042;52.136;5.584;2023-04-23T05:29:54;72.50;;;43.15;;
23722;SDS011;12042;52.136;5.584;2023-04-23T05:32:20;73.30;;;43.17;;
23722;SDS011;12042;52.136;5.584;2023-04-23T05:34:45;66.80;;;40.28;;
23722;SDS011;12042;52.136;5.584;2023-04-23T05:37:11;71.28;;;42.85;;
23722;SDS011;12042;52.136;5.584;2023-04-23T05:39:36;72.93;;;42.80;;
23722;SDS011;12042;52.136;5.584;2023-04-23T05:42:02;69.45;;;42.42;;
23722;SDS011;12042;52.136;5.584;2023-04-23T05:44:29;69.85;;;41.28;;
23722;SDS011;12042;52.136;5.584;2023-04-23T05:46:54;66.10;;;40.90;;
23722;SDS011;12042;52.136;5.584;2023-04-23T05:49:20;66.70;;;41.20;;
23722;SDS011;12042;52.136;5.584;2023-04-23T05:51:46;66.43;;;39.90;;
23722;SDS011;12042;52.136;5.584;2023-04-23T05:54:12;66.28;;;40.00;;
23722;SDS011;12042;52.136;5.584;2023-04-23T05:56:37;66.80;;;40.60;;
23722;SDS011;12042;52.136;5.584;2023-04-23T05:59:03;60.58;;;39.13;;
23722;SDS011;12042;52.136;5.584;2023-04-23T06:01:30;62.20;;;39.45;;
23722;SDS011;12042;52.136;5.584;2023-04-23T06:03:55;59.08;;;38.60;;
23722;SDS011;12042;52.136;5.584;2023-04-23T06:06:21;60.47;;;39.50;;
23722;SDS011;12042;52.136;5.584;2023-04-23T06:08:47;58.70;;;38.78;;
23722;SDS011;12042;52.136;5.584;2023-04-23T06:11:15;60.15;;;38.08;;
23722;SDS011;12042;52.136;5.584;2023-04-23T06:13:41;56.63;;;37.83;;
23722;SDS011;12042;52.136;5.584;2023-04-23T06:16:07;52.78;;;36.17;;
23722;SDS011;12042;52.136;5.584;2023-04-23T06:18:33;51.47;;;35.88;;
23722;SDS011;12042;52.136;5.584;2023-04-23T06:21:00;52.95;;;36.20;;
23722;SDS011;12042;52.136;5.584;2023-04-23T06:23:33;50.40;;;35.05;;
23722;SDS011;12042;52.136;5.584;2023-04-23T06:25:59;51.78;;;34.50;;
23722;SDS011;12042;52.136;5.584;2023-04-23T06:28:25;51.03;;;35.10;;
23722;SDS011;12042;52.136;5.584;2023-04-23T06:30:51;45.90;;;33.10;;
23722;SDS011;12042;52.136;5.584;2023-04-23T06:33:17;45.75;;;32.10;;
23722;SDS011;12042;52.136;5.584;2023-04-23T06:35:43;46.88;;;33.08;;
23722;SDS011;12042;52.136;5.584;2023-04-23T06:38:10;46.60;;;33.03;;
23722;SDS011;12042;52.136;5.584;2023-04-23T06:40:38;45.15;;;32.13;;
23722;SDS011;12042;52.136;5.584;2023-04-23T06:43:04;45.25;;;31.88;;
23722;SDS011;12042;52.136;5.584;2023-04-23T06:45:32;39.92;;;30.02;;
23722;SDS011;12042;52.136;5.584;2023-04-23T06:47:59;41.70;;;30.77;;
23722;SDS011;12042;52.136;5.584;2023-04-23T06:50:25;40.53;;;29.60;;
23722;SDS011;12042;52.136;5.584;2023-04-23T06:52:50;43.00;;;30.05;;
23722;SDS011;12042;52.136;5.584;2023-04-23T06:55:17;37.45;;;27.58;;
23722;SDS011;12042;52.136;5.584;2023-04-23T06:57:43;38.63;;;29.15;;
23722;SDS011;12042;52.136;5.584;2023-04-23T07:00:08;35.55;;;26.17;;
23722;SDS011;12042;52.136;5.584;2023-04-23T07:02:35;39.65;;;28.40;;
23722;SDS011;12042;52.136;5.584;2023-04-23T07:05:01;38.42;;;28.77;;
23722;SDS011;12042;52.136;5.584;2023-04-23T07:07:27;35.90;;;27.45;;
23722;SDS011;12042;52.136;5.584;2023-04-23T07:09:53;36.20;;;26.90;;
23722;SDS011;12042;52.136;5.584;2023-04-23T07:12:18;38.22;;;26.42;;
23722;SDS011;12042;52.136;5.584;2023-04-23T07:14:44;30.00;;;23.30;;
23722;SDS011;12042;52.136;5.584;2023-04-23T07:17:10;27.75;;;22.95;;
23722;SDS011;12042;52.136;5.584;2023-04-23T07:19:35;28.42;;;22.08;;
23722;SDS011;12042;52.136;5.584;2023-04-23T07:22:01;27.13;;;21.90;;
23722;SDS011;12042;52.136;5.584;2023-04-23T07:24:27;24.73;;;20.13;;
23722;SDS011;12042;52.136;5.584;2023-04-23T07:26:53;22.85;;;20.15;;
23722;SDS011;12042;52.136;5.584;2023-04-23T07:29:19;23.85;;;20.05;;
23722;SDS011;12042;52.136;5.584;2023-04-23T07:31:45;21.98;;;18.92;;
23722;SDS011;12042;52.136;5.584;2023-04-23T07:34:12;24.63;;;19.10;;
23722;SDS011;12042;52.136;5.584;2023-04-23T07:36:38;20.98;;;18.65;;
23722;SDS011;12042;52.136;5.584;2023-04-23T07:39:04;23.75;;;18.42;;
23722;SDS011;12042;52.136;5.584;2023-04-23T07:41:34;20.40;;;15.27;;
23722;SDS011;12042;52.136;5.584;2023-04-23T07:44:02;17.63;;;15.65;;
23722;SDS011;12042;52.136;5.584;2023-04-23T07:46:28;17.80;;;15.27;;
23722;SDS011;12042;52.136;5.584;2023-04-23T07:48:53;18.10;;;15.52;;
23722;SDS011;12042;52.136;5.584;2023-04-23T07:51:19;18.55;;;14.88;;
23722;SDS011;12042;52.136;5.584;2023-04-23T07:53:46;17.45;;;14.48;;
23722;SDS011;12042;52.136;5.584;2023-04-23T07:56:15;17.80;;;13.02;;
23722;SDS011;12042;52.136;5.584;2023-04-23T07:58:41;14.95;;;13.45;;
23722;SDS011;12042;52.136;5.584;2023-04-23T08:01:06;16.98;;;12.82;;
23722;SDS011;12042;52.136;5.584;2023-04-23T08:03:32;15.00;;;12.43;;
23722;SDS011;12042;52.136;5.584;2023-04-23T08:05:57;13.68;;;12.10;;
23722;SDS011;12042;52.136;5.584;2023-04-23T08:08:23;13.82;;;12.43;;
23722;SDS011;12042;52.136;5.584;2023-04-23T08:10:48;14.65;;;12.60;;
23722;SDS011;12042;52.136;5.584;2023-04-23T08:13:14;16.83;;;12.27;;
23722;SDS011;12042;52.136;5.584;2023-04-23T08:15:41;14.20;;;11.20;;
23722;SDS011;12042;52.136;5.584;2023-04-23T08:18:19;15.02;;;11.55;;
23722;SDS011;12042;52.136;5.584;2023-04-23T08:20:44;12.75;;;11.43;;
23722;SDS011;12042;52.136;5.584;2023-04-23T08:23:10;13.52;;;10.20;;
23722;SDS011;12042;52.136;5.584;2023-04-23T08:25:36;11.35;;;10.25;;
23722;SDS011;12042;52.136;5.584;2023-04-23T08:28:02;10.68;;;9.57;;
23722;SDS011;12042;52.136;5.584;2023-04-23T08:30:28;10.55;;;8.75;;
23722;SDS011;12042;52.136;5.584;2023-04-23T08:32:53;11.40;;;8.75;;
23722;SDS011;12042;52.136;5.584;2023-04-23T08:35:19;10.30;;;8.32;;
23722;SDS011;12042;52.136;5.584;2023-04-23T08:37:45;10.10;;;8.68;;
23722;SDS011;12042;52.136;5.584;2023-04-23T08:40:11;11.73;;;7.72;;
23722;SDS011;12042;52.136;5.584;2023-04-23T08:42:40;9.45;;;7.65;;
23722;SDS011;12042;52.136;5.584;2023-04-23T08:45:14;14.98;;;7.65;;
23722;SDS011;12042;52.136;5.584;2023-04-23T08:47:40;11.85;;;8.07;;
23722;SDS011;12042;52.136;5.584;2023-04-23T08:50:16;10.50;;;7.80;;
23722;SDS011;12042;52.136;5.584;2023-04-23T08:52:46;11.18;;;6.75;;
23722;SDS011;12042;52.136;5.584;2023-04-23T08:55:16;13.35;;;6.75;;
23722;SDS011;12042;52.136;5.584;2023-04-23T08:57:42;11.20;;;6.95;;
23722;SDS011;12042;52.136;5.584;2023-04-23T09:00:11;9.50;;;6.03;;
23722;SDS011;12042;52.136;5.584;2023-04-23T09:02:44;9.95;;;5.97;;
23722;SDS011;12042;52.136;5.584;2023-04-23T09:05:12;9.55;;;5.55;;
23722;SDS011;12042;52.136;5.584;2023-04-23T09:07:38;8.43;;;5.07;;
23722;SDS011;12042;52.136;5.584;2023-04-23T09:10:10;8.98;;;5.20;;
23722;SDS011;12042;52.136;5.584;2023-04-23T09:12:42;8.35;;;5.90;;
23722;SDS011;12042;52.136;5.584;2023-04-23T09:15:09;11.05;;;5.40;;
23722;SDS011;12042;52.136;5.584;2023-04-23T09:17:36;7.97;;;5.35;;
23722;SDS011;12042;52.136;5.584;2023-04-23T09:20:12;10.77;;;5.80;;
23722;SDS011;12042;52.136;5.584;2023-04-23T09:22:39;10.98;;;5.22;;
23722;SDS011;12042;52.136;5.584;2023-04-23T09:25:17;12.73;;;5.80;;
23722;SDS011;12042;52.136;5.584;2023-04-23T09:27:45;10.32;;;4.88;;
23722;SDS011;12042;52.136;5.584;2023-04-23T09:30:11;7.68;;;4.78;;
23722;SDS011;12042;52.136;5.584;2023-04-23T09:32:40;10.50;;;4.72;;
23722;SDS011;12042;52.136;5.584;2023-04-23T09:35:11;8.43;;;4.50;;
23722;SDS011;12042;52.136;5.584;2023-04-23T09:37:42;8.40;;;5.10;;
23722;SDS011;12042;52.136;5.584;2023-04-23T09:40:12;10.70;;;5.32;;
23722;SDS011;12042;52.136;5.584;2023-04-23T09:42:39;6.20;;;4.68;;
23722;SDS011;12042;52.136;5.584;2023-04-23T09:45:06;9.43;;;4.80;;
23722;SDS011;12042;52.136;5.584;2023-04-23T09:47:38;9.32;;;4.35;;
23722;SDS011;12042;52.136;5.584;2023-04-23T09:50:05;7.88;;;4.35;;
23722;SDS011;12042;52.136;5.584;2023-04-23T09:52:39;9.88;;;4.00;;
23722;SDS011;12042;52.136;5.584;2023-04-23T09:55:08;8.05;;;3.28;;
23722;SDS011;12042;52.136;5.584;2023-04-23T09:57:36;7.30;;;3.33;;
23722;SDS011;12042;52.136;5.584;2023-04-23T10:00:13;12.27;;;4.35;;
23722;SDS011;12042;52.136;5.584;2023-04-23T10:02:50;5.95;;;3.25;;
23722;SDS011;12042;52.136;5.584;2023-04-23T10:05:18;8.55;;;3.63;;
23722;SDS011;12042;52.136;5.584;2023-04-23T10:07:47;10.32;;;3.28;;
23722;SDS011;12042;52.136;5.584;2023-04-23T10:10:13;7.43;;;3.28;;
23722;SDS011;12042;52.136;5.584;2023-04-23T10:12:42;11.13;;;3.83;;
23722;SDS011;12042;52.136;5.584;2023-04-23T10:15:08;8.95;;;3.15;;
23722;SDS011;12042;52.136;5.584;2023-04-23T10:17:37;6.90;;;2.67;;
23722;SDS011;12042;52.136;5.584;2023-04-23T10:20:06;6.65;;;2.55;;
23722;SDS011;12042;52.136;5.584;2023-04-23T10:22:33;7.60;;;2.53;;
23722;SDS011;12042;52.136;5.584;2023-04-23T10:25:02;5.25;;;2.30;;
23722;SDS011;12042;52.136;5.584;2023-04-23T10:27:32;9.65;;;2.63;;
23722;SDS011;12042;52.136;5.584;2023-04-23T10:30:07;10.10;;;2.45;;
23722;SDS011;12042;52.136;5.584;2023-04-23T10:32:34;9.57;;;2.50;;
23722;SDS011;12042;52.136;5.584;2023-04-23T10:35:01;10.68;;;2.75;;
23722;SDS011;12042;52.136;5.584;2023-04-23T10:37:27;8.63;;;2.75;;
23722;SDS011;12042;52.136;5.584;2023-04-23T10:39:55;6.53;;;2.30;;
23722;SDS011;12042;52.136;5.584;2023-04-23T10:42:28;5.75;;;2.30;;
23722;SDS011;12042;52.136;5.584;2023-04-23T10:44:54;8.00;;;2.60;;
23722;SDS011;12042;52.136;5.584;2023-04-23T10:47:22;5.00;;;2.20;;
23722;SDS011;12042;52.136;5.584;2023-04-23T10:49:48;5.50;;;2.38;;
23722;SDS011;12042;52.136;5.584;2023-04-23T10:52:15;8.60;;;2.58;;
23722;SDS011;12042;52.136;5.584;2023-04-23T10:54:43;5.57;;;2.08;;
23722;SDS011;12042;52.136;5.584;2023-04-23T10:57:13;4.28;;;1.80;;
23722;SDS011;12042;52.136;5.584;2023-04-23T10:59:40;5.32;;;1.70;;
23722;SDS011;12042;52.136;5.584;2023-04-23T11:02:15;6.35;;;1.92;;
23722;SDS011;12042;52.136;5.584;2023-04-23T11:04:45;5.30;;;1.60;;
23722;SDS011;12042;52.136;5.584;2023-04-23T11:07:25;11.60;;;2.00;;
23722;SDS011;12042;52.136;5.584;2023-04-23T11:09:56;5.82;;;2.08;;
23722;SDS011;12042;52.136;5.584;2023-04-23T11:14:57;6.13;;;1.60;;
23722;SDS011;12042;52.136;5.584;2023-04-23T11:20:12;8.32;;;2.00;;
23722;SDS011;12042;52.136;5.584;2023-04-23T11:22:43;4.88;;;1.98;;
23722;SDS011;12042;52.136;5.584;2023-04-23T11:25:13;2.28;;;1.40;;
23722;SDS011;12042;52.136;5.584;2023-04-23T11:27:47;4.70;;;1.70;;
23722;SDS011;12042;52.136;5.584;2023-04-23T11:30:16;3.53;;;1.77;;
23722;SDS011;12042;52.136;5.584;2023-04-23T11:32:44;4.10;;;1.38;;
23722;SDS011;12042;52.136;5.584;2023-04-23T11:35:23;3.45;;;1.58;;
23722;SDS011;12042;52.136;5.584;2023-04-23T11:37:54;2.15;;;1.40;;
23722;SDS011;12042;52.136;5.584;2023-04-23T11:40:21;6.05;;;1.50;;
23722;SDS011;12042;52.136;5.584;2023-04-23T11:42:47;3.05;;;1.20;;
23722;SDS011;12042;52.136;5.584;2023-04-23T11:45:21;5.70;;;1.20;;
23722;SDS011;12042;52.136;5.584;2023-04-23T11:47:50;3.25;;;1.05;;
23722;SDS011;12042;52.136;5.584;2023-04-23T11:50:20;2.20;;;1.33;;
23722;SDS011;12042;52.136;5.584;2023-04-23T11:52:48;2.78;;;1.33;;
23722;SDS011;12042;52.136;5.584;2023-04-23T11:55:16;3.45;;;1.48;;
23722;SDS011;12042;52.136;5.584;2023-04-23T11:57:42;4.30;;;1.25;;
23722;SDS011;12042;52.136;5.584;2023-04-23T12:02:59;3.05;;;1.00;;
23722;SDS011;12042;52.136;5.584;2023-04-23T12:10:41;5.82;;;1.55;;
23722;SDS011;12042;52.136;5.584;2023-04-23T12:13:22;2.38;;;1.40;;
23722;SDS011;12042;52.136;5.584;2023-04-23T12:15:52;4.55;;;1.27;;
23722;SDS011;12042;52.136;5.584;2023-04-23T12:18:41;4.60;;;1.70;;
23722;SDS011;12042;52.136;5.584;2023-04-23T12:21:08;3.65;;;1.38;;
23722;SDS011;12042;52.136;5.584;2023-04-23T12:23:36;2.85;;;1.27;;
23722;SDS011;12042;52.136;5.584;2023-04-23T12:26:02;3.30;;;1.30;;
23722;SDS011;12042;52.136;5.584;2023-04-23T12:28:28;4.07;;;1.30;;
23722;SDS011;12042;52.136;5.584;2023-04-23T12:31:03;6.47;;;1.40;;
23722;SDS011;12042;52.136;5.584;2023-04-23T12:33:29;3.17;;;1.30;;
23722;SDS011;12042;52.136;5.584;2023-04-23T12:35:55;4.22;;;1.02;;
23722;SDS011;12042;52.136;5.584;2023-04-23T12:40:51;2.13;;;1.00;;
23722;SDS011;12042;52.136;5.584;2023-04-23T12:43:19;3.00;;;1.35;;
23722;SDS011;12042;52.136;5.584;2023-04-23T12:45:45;3.20;;;1.60;;
23722;SDS011;12042;52.136;5.584;2023-04-23T12:48:11;5.00;;;1.40;;
23722;SDS011;12042;52.136;5.584;2023-04-23T12:50:39;4.07;;;1.23;;
23722;SDS011;12042;52.136;5.584;2023-04-23T12:53:05;3.10;;;1.23;;
23722;SDS011;12042;52.136;5.584;2023-04-23T12:55:30;3.83;;;1.25;;
23722;SDS011;12042;52.136;5.584;2023-04-23T12:57:57;2.67;;;1.27;;
23722;SDS011;12042;52.136;5.584;2023-04-23T13:00:23;1.55;;;1.33;;
23722;SDS011;12042;52.136;5.584;2023-04-23T13:02:49;2.30;;;1.33;;
23722;SDS011;12042;52.136;5.584;2023-04-23T13:05:15;4.75;;;1.63;;
23722;SDS011;12042;52.136;5.584;2023-04-23T13:07:41;3.05;;;1.20;;
23722;SDS011;12042;52.136;5.584;2023-04-23T13:10:07;2.20;;;0.98;;
23722;SDS011;12042;52.136;5.584;2023-04-23T13:12:34;2.90;;;1.33;;
23722;SDS011;12042;52.136;5.584;2023-04-23T13:14:59;3.40;;;1.50;;
23722;SDS011;12042;52.136;5.584;2023-04-23T13:17:25;2.58;;;1.30;;
23722;SDS011;12042;52.136;5.584;2023-04-23T13:19:51;4.90;;;1.40;;
23722;SDS011;12042;52.136;5.584;2023-04-23T13:22:17;3.90;;;1.40;;
23722;SDS011;12042;52.136;5.584;2023-04-23T13:24:45;4.72;;;1.45;;
23722;SDS011;12042;52.136;5.584;2023-04-23T13:27:11;3.58;;;1.50;;
23722;SDS011;12042;52.136;5.584;2023-04-23T13:29:37;4.68;;;1.70;;
23722;SDS011;12042;52.136;5.584;2023-04-23T13:32:05;4.30;;;1.80;;
23722;SDS011;12042;52.136;5.584;2023-04-23T13:34:31;5.38;;;1.70;;
23722;SDS011;12042;52.136;5.584;2023-04-23T13:36:58;2.60;;;1.55;;
23722;SDS011;12042;52.136;5.584;2023-04-23T13:39:24;6.00;;;1.55;;
23722;SDS011;12042;52.136;5.584;2023-04-23T13:41:50;4.47;;;1.40;;
23722;SDS011;12042;52.136;5.584;2023-04-23T13:44:15;2.25;;;1.40;;
23722;SDS011;12042;52.136;5.584;2023-04-23T13:46:41;1.85;;;1.13;;
23722;SDS011;12042;52.136;5.584;2023-04-23T13:49:07;2.25;;;1.20;;
23722;SDS011;12042;52.136;5.584;2023-04-23T13:51:32;4.38;;;1.42;;
23722;SDS011;12042;52.136;5.584;2023-04-23T13:53:58;2.55;;;1.35;;
23722;SDS011;12042;52.136;5.584;2023-04-23T13:56:25;1.33;;;0.95;;
23722;SDS011;12042;52.136;5.584;2023-04-23T13:58:51;1.95;;;0.90;;
23722;SDS011;12042;52.136;5.584;2023-04-23T14:01:19;3.97;;;1.00;;
23722;SDS011;12042;52.136;5.584;2023-04-23T14:03:45;1.60;;;1.10;;
23722;SDS011;12042;52.136;5.584;2023-04-23T14:06:12;4.28;;;1.30;;
23722;SDS011;12042;52.136;5.584;2023-04-23T14:08:37;3.70;;;1.10;;
23722;SDS011;12042;52.136;5.584;2023-04-23T14:11:03;3.20;;;1.10;;
23722;SDS011;12042;52.136;5.584;2023-04-23T14:13:29;4.57;;;1.48;;
23722;SDS011;12042;52.136;5.584;2023-04-23T14:15:56;2.22;;;1.20;;
23722;SDS011;12042;52.136;5.584;2023-04-23T14:18:22;2.83;;;1.38;;
23722;SDS011;12042;52.136;5.584;2023-04-23T14:20:48;5.32;;;1.60;;
23722;SDS011;12042;52.136;5.584;2023-04-23T14:25:58;5.43;;;1.35;;
23722;SDS011;12042;52.136;5.584;2023-04-23T14:28:32;2.47;;;1.15;;
23722;SDS011;12042;52.136;5.584;2023-04-23T14:31:03;3.47;;;1.27;;
23722;SDS011;12042;52.136;5.584;2023-04-23T14:33:28;6.07;;;1.25;;
23722;SDS011;12042;52.136;5.584;2023-04-23T14:35:54;2.85;;;1.30;;
23722;SDS011;12042;52.136;5.584;2023-04-23T14:38:20;3.08;;;1.45;;
23722;SDS011;12042;52.136;5.584;2023-04-23T14:40:47;7.95;;;1.60;;
23722;SDS011;12042;52.136;5.584;2023-04-23T14:43:12;3.22;;;1.52;;
23722;SDS011;12042;52.136;5.584;2023-04-23T14:45:38;3.10;;;1.45;;